createdAt,value
2017-11-05T00:00:53.852Z,25.70
2017-11-05T00:03:21.429Z,23.50
2017-11-05T00:05:48.884Z,24.63
2017-11-05T00:08:16.648Z,25.13
2017-11-05T00:10:44.309Z,25.70
2017-11-05T00:13:11.805Z,23.97
2017-11-05T00:15:39.241Z,25.53
2017-11-05T00:18:06.671Z,27.60
2017-11-05T00:20:34.437Z,29.40
2017-11-05T00:23:02.000Z,27.27
2017-11-05T00:25:29.757Z,25.33
2017-11-05T00:27:57.188Z,27.17
2017-11-05T00:30:24.669Z,23.93
2017-11-05T00:32:52.104Z,30.43
2017-11-05T00:35:19.538Z,27.83
2017-11-05T00:37:46.968Z,31.87
2017-11-05T00:40:14.400Z,32.30
2017-11-05T00:42:41.836Z,29.03
2017-11-05T00:45:09.352Z,31.60
2017-11-05T00:47:36.791Z,31.73
2017-11-05T00:50:04.233Z,27.07
2017-11-05T00:52:31.670Z,27.23
2017-11-05T00:54:59.140Z,27.30
2017-11-05T00:57:26.696Z,32.87
2017-11-05T00:59:54.324Z,25.70
2017-11-05T01:02:21.887Z,24.60
2017-11-05T01:04:49.324Z,26.87
2017-11-05T01:07:16.764Z,22.40
2017-11-05T01:09:44.280Z,22.00
2017-11-05T01:12:11.928Z,21.97
2017-11-05T01:14:39.426Z,29.90
2017-11-05T01:17:06.864Z,32.90
2017-11-05T01:19:35.335Z,32.80
2017-11-05T01:22:02.878Z,31.87
2017-11-05T01:24:30.456Z,32.50
2017-11-05T01:26:58.012Z,29.73
2017-11-05T01:29:25.697Z,33.87
2017-11-05T01:31:53.128Z,30.73
2017-11-05T01:34:20.689Z,28.43
2017-11-05T01:36:48.116Z,29.17
2017-11-05T01:39:15.611Z,25.67
2017-11-05T01:41:43.200Z,31.30
2017-11-05T01:44:10.641Z,31.50
2017-11-05T01:46:38.275Z,27.77
2017-11-05T01:49:05.716Z,25.77
2017-11-05T01:51:33.192Z,31.43
2017-11-05T01:54:00.952Z,26.60
2017-11-05T01:56:28.381Z,27.13
2017-11-05T01:58:55.865Z,26.00
2017-11-05T02:01:23.311Z,25.13
2017-11-05T02:03:50.776Z,25.87
2017-11-05T02:06:18.207Z,25.53
2017-11-05T02:08:45.644Z,24.50
2017-11-05T02:11:13.151Z,24.53
2017-11-05T02:13:40.577Z,27.03
2017-11-05T02:16:08.012Z,21.73
2017-11-05T02:18:35.699Z,23.27
2017-11-05T02:21:03.885Z,26.27
2017-11-05T02:23:31.351Z,28.17
2017-11-05T02:25:58.798Z,25.53
2017-11-05T02:28:26.260Z,26.73
2017-11-05T02:30:53.710Z,25.33
2017-11-05T02:33:21.177Z,23.47
2017-11-05T02:35:48.628Z,30.20
2017-11-05T02:38:16.392Z,31.23
2017-11-05T02:40:43.833Z,30.23
2017-11-05T02:43:11.288Z,29.00
2017-11-05T02:45:38.756Z,28.37
2017-11-05T02:48:06.232Z,28.43
2017-11-05T02:50:33.974Z,31.10
2017-11-05T02:53:01.433Z,28.60
2017-11-05T02:55:28.892Z,32.10
2017-11-05T02:57:56.346Z,33.80
2017-11-05T03:00:23.823Z,35.33
2017-11-05T03:02:51.259Z,30.03
2017-11-05T03:05:18.688Z,32.27
2017-11-05T03:07:46.124Z,34.90
2017-11-05T03:10:13.544Z,34.73
2017-11-05T03:12:40.990Z,34.00
2017-11-05T03:15:08.424Z,31.30
2017-11-05T03:17:35.952Z,30.97
2017-11-05T03:20:03.381Z,32.17
2017-11-05T03:22:30.915Z,33.97
2017-11-05T03:24:58.345Z,35.33
2017-11-05T03:27:25.772Z,38.77
2017-11-05T03:29:53.275Z,36.03
2017-11-05T03:32:20.733Z,39.27
2017-11-05T03:34:48.172Z,32.83
2017-11-05T03:37:15.621Z,34.10
2017-11-05T03:39:43.071Z,32.30
2017-11-05T03:42:10.555Z,34.30
2017-11-05T03:44:38.076Z,31.53
2017-11-05T03:47:05.776Z,32.57
2017-11-05T03:49:33.212Z,34.93
2017-11-05T03:52:00.642Z,29.00
2017-11-05T03:54:28.073Z,31.27
2017-11-05T03:56:56.272Z,31.13
2017-11-05T03:59:23.709Z,36.17
2017-11-05T04:01:51.436Z,32.33
2017-11-05T04:04:18.904Z,32.67
2017-11-05T04:06:46.336Z,31.90
2017-11-05T04:09:13.777Z,33.57
2017-11-05T04:11:41.260Z,30.70
2017-11-05T04:14:08.814Z,34.20
2017-11-05T04:16:36.240Z,33.80
2017-11-05T04:19:03.937Z,33.20
2017-11-05T04:21:31.373Z,34.80
2017-11-05T04:23:58.848Z,32.03
2017-11-05T04:26:26.305Z,27.90
2017-11-05T04:28:53.736Z,31.10
2017-11-05T04:31:21.217Z,28.67
2017-11-05T04:33:48.678Z,27.33
2017-11-05T04:36:16.108Z,30.10
2017-11-05T04:38:43.533Z,29.80
2017-11-05T04:41:10.976Z,31.00
2017-11-05T04:43:38.404Z,28.20
2017-11-05T04:46:05.952Z,31.60
2017-11-05T04:48:33.408Z,33.63
2017-11-05T04:51:00.865Z,32.40
2017-11-05T04:53:28.320Z,35.27
2017-11-05T04:55:55.743Z,27.30
2017-11-05T04:58:23.176Z,30.37
2017-11-05T05:00:50.698Z,30.20
2017-11-05T05:03:18.137Z,30.63
2017-11-05T05:05:45.555Z,32.50
2017-11-05T05:08:12.995Z,28.23
2017-11-05T05:10:40.424Z,28.87
2017-11-05T05:13:07.968Z,33.37
2017-11-05T05:15:35.396Z,28.17
2017-11-05T05:18:02.892Z,22.10
2017-11-05T05:20:30.337Z,22.20
2017-11-05T05:22:57.776Z,24.33
2017-11-05T05:25:25.200Z,23.13
2017-11-05T05:27:52.652Z,21.70
2017-11-05T05:30:20.076Z,20.40
2017-11-05T05:32:47.620Z,20.10
2017-11-05T05:35:15.065Z,22.30
2017-11-05T05:37:42.494Z,19.77
2017-11-05T05:40:09.987Z,22.47
2017-11-05T05:42:37.449Z,19.63
2017-11-05T05:45:04.904Z,17.30
2017-11-05T05:47:32.336Z,18.20
2017-11-05T05:49:59.816Z,16.83
2017-11-05T05:52:27.244Z,16.37
2017-11-05T05:54:54.732Z,19.83
2017-11-05T05:57:22.160Z,20.03
2017-11-05T05:59:49.644Z,20.00
2017-11-05T06:02:17.091Z,20.83
2017-11-05T06:04:44.556Z,19.70
2017-11-05T06:07:11.996Z,18.37
2017-11-05T06:09:39.464Z,20.20
2017-11-05T06:12:06.907Z,21.97
2017-11-05T06:14:34.377Z,20.23
2017-11-05T06:17:01.831Z,21.43
2017-11-05T06:19:29.288Z,21.13
2017-11-05T06:21:56.723Z,21.50
2017-11-05T06:24:24.201Z,23.67
2017-11-05T06:26:51.657Z,26.60
2017-11-05T06:29:19.088Z,21.93
2017-11-05T06:31:46.774Z,21.43
2017-11-05T06:34:14.280Z,24.57
2017-11-05T06:36:41.792Z,19.07
2017-11-05T06:39:09.220Z,24.93
2017-11-05T06:41:36.701Z,22.80
2017-11-05T06:44:04.168Z,24.10
2017-11-05T06:46:31.611Z,19.83
2017-11-05T06:48:59.052Z,21.90
2017-11-05T06:51:26.523Z,22.43
2017-11-05T06:53:53.986Z,19.37
2017-11-05T06:56:21.418Z,18.67
2017-11-05T06:58:48.928Z,18.03
2017-11-05T07:01:16.356Z,16.23
2017-11-05T07:03:43.788Z,18.10
2017-11-05T07:06:11.216Z,17.47
2017-11-05T07:08:38.653Z,16.90
2017-11-05T07:11:06.083Z,16.70
2017-11-05T07:13:33.675Z,15.90
2017-11-05T07:16:01.223Z,15.40
2017-11-05T07:18:29.776Z,17.63
2017-11-05T07:20:57.206Z,16.97
2017-11-05T07:23:24.632Z,19.33
2017-11-05T07:25:52.140Z,13.60
2017-11-05T07:28:19.572Z,16.03
2017-11-05T07:30:47.004Z,15.00
2017-11-05T07:33:14.521Z,15.30
2017-11-05T07:35:41.964Z,15.43
2017-11-05T07:38:09.424Z,14.90
2017-11-05T07:40:37.080Z,16.87
2017-11-05T07:43:04.496Z,16.80
2017-11-05T07:45:32.718Z,9.13
2017-11-05T07:48:00.185Z,7.73
2017-11-05T07:50:27.625Z,8.40
2017-11-05T07:52:55.055Z,6.73
2017-11-05T07:55:22.476Z,4.93
2017-11-05T07:57:49.996Z,6.70
2017-11-05T08:00:17.449Z,4.03
2017-11-05T08:02:44.884Z,2.97
2017-11-05T08:05:12.362Z,4.90
2017-11-05T08:07:39.806Z,3.73
2017-11-05T08:10:07.224Z,4.47
2017-11-05T08:12:34.744Z,12.27
2017-11-05T08:15:02.193Z,6.13
2017-11-05T08:17:29.611Z,5.27
2017-11-05T08:19:57.143Z,4.57
2017-11-05T08:22:24.868Z,4.03
2017-11-05T08:24:52.304Z,4.23
2017-11-05T08:27:19.720Z,4.53
2017-11-05T08:29:47.230Z,4.07
2017-11-05T08:32:14.692Z,3.77
2017-11-05T08:34:42.119Z,3.90
2017-11-05T08:37:09.547Z,5.60
2017-11-05T08:39:37.984Z,3.73
2017-11-05T08:42:05.400Z,7.17
2017-11-05T08:44:32.896Z,4.00
2017-11-05T08:47:00.336Z,4.40
2017-11-05T08:49:27.809Z,3.57
2017-11-05T08:51:55.236Z,3.97
2017-11-05T08:54:22.668Z,3.17
2017-11-05T08:56:50.304Z,2.70
2017-11-05T08:59:17.856Z,2.80
2017-11-05T09:01:45.464Z,3.80
2017-11-05T09:04:13.712Z,3.10
2017-11-05T09:06:41.136Z,2.60
2017-11-05T09:09:08.685Z,3.73
2017-11-05T09:11:36.109Z,3.20
2017-11-05T09:14:03.599Z,2.27
2017-11-05T09:16:31.025Z,2.20
2017-11-05T09:18:58.463Z,2.47
2017-11-05T09:21:25.889Z,1.87
2017-11-05T09:23:53.419Z,3.90
2017-11-05T09:26:20.875Z,1.70
2017-11-05T09:28:48.329Z,1.63
2017-11-05T09:31:15.748Z,1.60
2017-11-05T09:33:43.260Z,1.97
2017-11-05T09:36:10.880Z,2.43
2017-11-05T09:38:38.304Z,1.73
2017-11-05T09:41:05.715Z,3.70
2017-11-05T09:43:33.380Z,2.07
2017-11-05T09:46:01.012Z,3.43
2017-11-05T09:48:29.440Z,2.67
2017-11-05T09:50:56.981Z,4.07
2017-11-05T09:53:24.672Z,3.63
2017-11-05T09:55:52.144Z,3.23
2017-11-05T09:58:19.652Z,3.40
2017-11-05T10:00:47.109Z,2.70
2017-11-05T10:03:14.563Z,6.43
2017-11-05T10:05:41.992Z,6.10
2017-11-05T10:08:09.420Z,4.43
2017-11-05T10:10:36.932Z,5.80
2017-11-05T10:13:04.697Z,5.60
2017-11-05T10:15:32.130Z,3.47
2017-11-05T10:17:59.557Z,6.67
2017-11-05T10:20:27.062Z,5.90
2017-11-05T10:22:54.524Z,4.50
2017-11-05T10:25:22.156Z,3.80
2017-11-05T10:27:49.673Z,4.23
2017-11-05T10:30:17.210Z,4.47
2017-11-05T10:32:44.662Z,3.70
2017-11-05T10:35:12.100Z,6.67
2017-11-05T10:37:39.619Z,2.63
2017-11-05T10:40:07.240Z,2.80
2017-11-05T10:42:34.685Z,1.97
2017-11-05T10:45:02.160Z,2.20
2017-11-05T10:47:29.700Z,2.20
2017-11-05T10:49:57.132Z,2.83
2017-11-05T10:52:24.552Z,2.63
2017-11-05T10:54:52.005Z,2.90
2017-11-05T10:57:19.428Z,3.20
2017-11-05T10:59:46.981Z,3.50
2017-11-05T11:02:14.397Z,5.07
2017-11-05T11:07:14.464Z,4.03
2017-11-05T11:09:41.895Z,2.70
2017-11-05T11:12:09.320Z,2.77
2017-11-05T11:14:36.956Z,2.50
2017-11-05T11:17:04.372Z,2.70
2017-11-05T11:19:31.799Z,2.70
2017-11-05T11:21:59.345Z,2.63
2017-11-05T11:24:26.784Z,3.23
2017-11-05T11:26:54.223Z,2.70
2017-11-05T11:29:21.692Z,2.43
2017-11-05T11:31:49.181Z,3.40
2017-11-05T11:34:16.907Z,6.33
2017-11-05T11:36:44.347Z,8.43
2017-11-05T11:39:11.765Z,7.47
2017-11-05T11:41:39.205Z,8.47
2017-11-05T11:44:06.624Z,8.60
2017-11-05T11:46:34.072Z,10.90
2017-11-05T11:49:02.755Z,8.03
2017-11-05T11:51:30.402Z,8.07
2017-11-05T11:53:58.083Z,9.87
2017-11-05T11:56:25.545Z,5.50
2017-11-05T11:58:52.996Z,4.47
2017-11-05T12:01:20.431Z,4.40
2017-11-05T12:03:47.915Z,5.07
2017-11-05T12:06:15.372Z,3.80
2017-11-05T12:08:42.799Z,4.50
2017-11-05T12:11:10.476Z,5.60
2017-11-05T12:13:37.911Z,6.60
2017-11-05T12:16:05.537Z,4.10
2017-11-05T12:18:32.948Z,3.80
2017-11-05T12:21:00.373Z,4.87
2017-11-05T12:23:27.816Z,4.20
2017-11-05T12:25:55.316Z,4.50
2017-11-05T12:28:22.749Z,4.27
2017-11-05T12:30:50.965Z,3.67
2017-11-05T12:33:18.399Z,3.90
2017-11-05T12:35:45.942Z,3.70
2017-11-05T12:38:13.524Z,6.10
2017-11-05T12:40:40.983Z,4.70
2017-11-05T12:43:08.416Z,4.37
2017-11-05T12:45:35.888Z,6.20
2017-11-05T12:48:03.487Z,5.63
2017-11-05T12:50:30.911Z,5.90
2017-11-05T12:52:58.464Z,3.60
2017-11-05T12:55:26.027Z,3.70
2017-11-05T12:57:53.784Z,4.47
2017-11-05T13:00:21.218Z,5.73
2017-11-05T13:02:48.639Z,2.90
2017-11-05T13:05:16.072Z,2.97
2017-11-05T13:07:43.501Z,3.83
2017-11-05T13:10:10.927Z,4.97
2017-11-05T13:12:39.114Z,3.60
2017-11-05T13:15:06.540Z,2.60
2017-11-05T13:17:33.964Z,4.23
2017-11-05T13:20:01.388Z,5.80
2017-11-05T13:22:28.824Z,3.93
2017-11-05T13:24:57.008Z,4.17
2017-11-05T13:27:25.331Z,4.77
2017-11-05T13:29:52.764Z,3.53
2017-11-05T13:32:20.189Z,3.47
2017-11-05T13:34:47.635Z,3.13
2017-11-05T13:37:16.124Z,6.33
2017-11-05T13:39:43.543Z,3.07
2017-11-05T13:42:10.976Z,3.73
2017-11-05T13:44:38.402Z,3.23
2017-11-05T13:47:05.816Z,3.97
2017-11-05T13:49:33.248Z,3.57
2017-11-05T13:52:00.672Z,4.80
2017-11-05T13:54:28.100Z,4.57
2017-11-05T13:56:55.525Z,5.80
2017-11-05T13:59:22.956Z,4.23
2017-11-05T14:01:50.389Z,5.80
2017-11-05T14:04:17.820Z,4.10
2017-11-05T14:06:45.240Z,3.50
2017-11-05T14:09:12.673Z,3.37
2017-11-05T14:11:40.092Z,3.67
2017-11-05T14:14:08.291Z,5.23
2017-11-05T14:16:35.700Z,4.93
2017-11-05T14:19:03.184Z,6.00
2017-11-05T14:21:30.604Z,3.90
2017-11-05T14:23:58.025Z,4.20
2017-11-05T14:26:25.462Z,4.93
2017-11-05T14:28:52.880Z,6.90
2017-11-05T14:31:20.312Z,5.17
2017-11-05T14:33:47.766Z,4.80
2017-11-05T14:36:15.321Z,5.97
2017-11-05T14:38:42.772Z,5.83
2017-11-05T14:41:10.356Z,5.20
2017-11-05T14:43:38.092Z,6.33
2017-11-05T14:46:05.538Z,7.33
2017-11-05T14:48:32.957Z,3.87
2017-11-05T14:51:01.157Z,6.47
2017-11-05T14:53:28.576Z,6.00
2017-11-05T14:55:56.774Z,5.77
2017-11-05T14:58:24.960Z,10.17
2017-11-05T15:00:52.397Z,13.30
2017-11-05T15:03:20.091Z,15.27
2017-11-05T15:05:47.525Z,15.33
2017-11-05T15:08:14.952Z,12.50
2017-11-05T15:10:42.568Z,7.20
2017-11-05T15:13:09.983Z,7.20
2017-11-05T15:15:37.472Z,7.03
2017-11-05T15:18:04.934Z,10.40
2017-11-05T15:20:32.352Z,8.57
2017-11-05T15:22:59.787Z,6.80
2017-11-05T15:25:27.217Z,7.10
2017-11-05T15:27:54.652Z,11.50
2017-11-05T15:30:22.084Z,6.47
2017-11-05T15:32:49.515Z,6.27
2017-11-05T15:35:17.706Z,9.37
2017-11-05T15:37:45.137Z,5.50
2017-11-05T15:40:12.561Z,6.13
2017-11-05T15:42:39.992Z,6.73
2017-11-05T15:45:07.416Z,7.27
2017-11-05T15:47:35.633Z,7.33
2017-11-05T15:50:03.064Z,6.70
2017-11-05T15:52:30.492Z,5.70
2017-11-05T15:54:57.928Z,6.13
2017-11-05T15:57:25.353Z,4.63
2017-11-05T15:59:52.786Z,6.43
2017-11-05T16:02:20.208Z,5.20
2017-11-05T16:04:47.777Z,7.03
2017-11-05T16:07:15.316Z,6.20
2017-11-05T16:09:42.920Z,7.07
2017-11-05T16:12:10.408Z,6.80
2017-11-05T16:14:37.957Z,6.50
2017-11-05T16:17:05.412Z,7.63
2017-11-05T16:19:37.576Z,8.30
2017-11-05T16:22:04.978Z,7.23
2017-11-05T16:24:32.444Z,6.70
2017-11-05T16:26:59.877Z,11.93
2017-11-05T16:29:27.610Z,7.67
2017-11-05T16:31:55.025Z,6.07
2017-11-05T16:34:22.444Z,6.70
2017-11-05T16:36:49.977Z,8.50
2017-11-05T16:39:17.395Z,9.53
2017-11-05T16:41:44.892Z,6.80
2017-11-05T16:44:12.308Z,7.43
2017-11-05T16:46:39.804Z,7.30
2017-11-05T16:49:07.260Z,7.90
2017-11-05T16:51:34.687Z,6.57
2017-11-05T16:54:02.176Z,7.23
2017-11-05T16:56:29.601Z,7.10
2017-11-05T16:58:57.021Z,7.97
2017-11-05T17:01:24.489Z,9.00
2017-11-05T17:03:51.997Z,8.60
2017-11-05T17:06:19.419Z,8.10
2017-11-05T17:08:46.917Z,6.70
2017-11-05T17:11:14.343Z,6.73
2017-11-05T17:13:41.761Z,9.17
2017-11-05T17:16:09.176Z,8.07
2017-11-05T17:18:36.692Z,12.87
2017-11-05T17:21:04.192Z,14.90
2017-11-05T17:23:31.621Z,9.00
2017-11-05T17:25:59.104Z,15.40
2017-11-05T17:28:26.595Z,10.53
2017-11-05T17:30:54.192Z,15.70
2017-11-05T17:33:21.724Z,12.90
2017-11-05T17:35:49.233Z,12.53
2017-11-05T17:38:16.697Z,8.80
2017-11-05T17:40:44.132Z,13.97
2017-11-05T17:43:11.578Z,14.87
2017-11-05T17:45:39.058Z,13.43
2017-11-05T17:48:06.835Z,12.80
2017-11-05T17:50:34.284Z,10.20
2017-11-05T17:53:01.943Z,10.40
2017-11-05T17:55:29.504Z,11.10
2017-11-05T17:57:57.349Z,10.17
2017-11-05T18:00:24.776Z,9.20
2017-11-05T18:02:52.486Z,7.63
2017-11-05T18:05:19.937Z,11.88
2017-11-05T18:07:47.357Z,9.87
2017-11-05T18:10:14.789Z,11.77
2017-11-05T18:12:42.306Z,12.47
2017-11-05T18:15:09.736Z,11.77
2017-11-05T18:17:37.156Z,10.90
2017-11-05T18:20:05.531Z,13.15
2017-11-05T18:22:32.936Z,11.30
2017-11-05T18:25:00.405Z,17.33
2017-11-05T18:27:27.864Z,22.13
2017-11-05T18:29:55.336Z,15.73
2017-11-05T18:32:22.892Z,12.60
2017-11-05T18:34:50.334Z,14.17
2017-11-05T18:37:17.765Z,15.00
2017-11-05T18:39:45.191Z,11.97
2017-11-05T18:42:13.605Z,12.30
2017-11-05T18:44:41.025Z,10.90
2017-11-05T18:47:08.457Z,11.20
2017-11-05T18:49:35.986Z,10.10
2017-11-05T18:52:03.452Z,10.20
2017-11-05T18:54:30.876Z,10.30
2017-11-05T18:56:58.312Z,11.27
2017-11-05T18:59:25.728Z,9.27
2017-11-05T19:01:53.276Z,15.27
2017-11-05T19:04:20.704Z,10.33
2017-11-05T19:06:48.185Z,7.43
2017-11-05T19:09:15.610Z,8.73
2017-11-05T19:11:43.098Z,8.13
2017-11-05T19:14:10.525Z,7.87
2017-11-05T19:16:38.015Z,8.73
2017-11-05T19:19:05.486Z,8.40
2017-11-05T19:21:33.232Z,7.27
2017-11-05T19:24:00.661Z,10.53
2017-11-05T19:26:28.079Z,9.80
2017-11-05T19:28:55.497Z,9.67
2017-11-05T19:31:22.917Z,11.40
2017-11-05T19:33:51.127Z,10.47
2017-11-05T19:36:18.559Z,12.60
2017-11-05T19:38:46.040Z,13.33
2017-11-05T19:41:13.464Z,12.77
2017-11-05T19:43:40.892Z,11.40
2017-11-05T19:46:08.557Z,12.90
2017-11-05T19:48:36.172Z,17.33
2017-11-05T19:51:03.600Z,13.25
2017-11-05T19:53:31.028Z,8.63
2017-11-05T19:55:58.444Z,9.00
2017-11-05T19:58:25.868Z,8.83
2017-11-05T20:00:53.352Z,9.07
2017-11-05T20:03:20.805Z,8.17
2017-11-05T20:05:48.220Z,9.10
2017-11-05T20:08:16.409Z,10.10
2017-11-05T20:10:43.888Z,9.23
2017-11-05T20:13:11.305Z,7.53
2017-11-05T20:15:38.804Z,8.57
2017-11-05T20:18:06.501Z,7.60
2017-11-05T20:20:33.933Z,10.70
2017-11-05T20:23:01.484Z,12.90
2017-11-05T20:25:28.940Z,10.13
2017-11-05T20:27:56.389Z,11.27
2017-11-05T20:30:23.829Z,14.30
2017-11-05T20:32:51.249Z,9.87
2017-11-05T20:35:18.672Z,12.03
2017-11-05T20:37:46.216Z,7.77
2017-11-05T20:40:13.653Z,10.40
2017-11-05T20:42:41.075Z,11.47
2017-11-05T20:45:09.385Z,13.57
2017-11-05T20:47:36.876Z,12.73
2017-11-05T20:50:04.425Z,11.23
2017-11-05T20:52:31.876Z,9.73
2017-11-05T20:54:59.336Z,10.57
2017-11-05T20:57:26.768Z,8.27
2017-11-05T20:59:54.184Z,9.20
2017-11-05T21:02:21.612Z,10.30
2017-11-05T21:04:49.091Z,12.30
2017-11-05T21:07:16.613Z,15.40
2017-11-05T21:09:44.046Z,12.00
2017-11-05T21:12:11.528Z,9.43
2017-11-05T21:14:38.987Z,8.30
2017-11-05T21:17:06.416Z,8.50
2017-11-05T21:19:33.832Z,7.90
2017-11-05T21:22:01.256Z,10.93
2017-11-05T21:24:28.808Z,11.10
2017-11-05T21:26:56.249Z,9.77
2017-11-05T21:29:23.669Z,9.40
2017-11-05T21:31:51.087Z,11.70
2017-11-05T21:34:19.184Z,7.97
2017-11-05T21:36:46.584Z,9.57
2017-11-05T21:39:14.164Z,9.70
2017-11-05T21:41:41.580Z,11.50
2017-11-05T21:44:09.011Z,6.80
2017-11-05T21:46:36.532Z,8.27
2017-11-05T21:49:03.960Z,8.20
2017-11-05T21:51:31.444Z,8.50
2017-11-05T21:53:58.893Z,6.93
2017-11-05T21:56:26.308Z,8.23
2017-11-05T21:58:53.752Z,6.17
2017-11-05T22:01:21.265Z,6.40
2017-11-05T22:03:48.676Z,5.80
2017-11-05T22:06:16.176Z,9.00
2017-11-05T22:08:43.633Z,7.97
2017-11-05T22:11:11.065Z,6.40
2017-11-05T22:13:38.480Z,6.80
2017-11-05T22:16:05.908Z,7.87
2017-11-05T22:18:33.368Z,7.73
2017-11-05T22:21:00.914Z,7.30
2017-11-05T22:23:28.372Z,7.20
2017-11-05T22:25:55.828Z,8.33
2017-11-05T22:28:23.244Z,7.87
2017-11-05T22:30:50.739Z,5.30
2017-11-05T22:33:18.192Z,5.80
2017-11-05T22:35:45.612Z,5.47
2017-11-05T22:38:13.032Z,5.00
2017-11-05T22:40:40.464Z,4.60
2017-11-05T22:43:08.040Z,4.77
2017-11-05T22:45:35.771Z,9.10
2017-11-05T22:48:03.199Z,4.60
2017-11-05T22:50:30.624Z,6.57
2017-11-05T22:52:58.152Z,8.20
2017-11-05T22:55:25.608Z,7.30
2017-11-05T22:57:53.068Z,7.03
2017-11-05T23:00:20.500Z,6.22
2017-11-05T23:02:47.929Z,5.30
2017-11-05T23:05:15.436Z,5.53
2017-11-05T23:07:42.860Z,4.97
2017-11-05T23:10:10.346Z,5.22
2017-11-05T23:12:37.756Z,6.33
2017-11-05T23:15:05.179Z,6.60
2017-11-05T23:17:32.621Z,6.20
2017-11-05T23:20:00.171Z,5.57
2017-11-05T23:22:27.636Z,5.87
2017-11-05T23:24:55.263Z,4.47
2017-11-05T23:27:22.712Z,6.20
2017-11-05T23:29:50.212Z,5.10
2017-11-05T23:32:17.640Z,6.78
2017-11-05T23:34:45.220Z,6.95
2017-11-05T23:37:12.837Z,5.43
2017-11-05T23:39:41.052Z,9.07
2017-11-05T23:42:08.472Z,6.82
2017-11-05T23:44:35.905Z,5.97
2017-11-05T23:47:03.418Z,4.53
2017-11-05T23:49:30.875Z,5.28
2017-11-05T23:51:58.292Z,5.62
2017-11-05T23:54:25.792Z,5.78
2017-11-05T23:56:54.165Z,7.12
2017-11-05T23:59:21.588Z,6.07
